LSHC weather

Collombey-Muraz Heliport
Collombey-Muraz, Canton of Valais, Switzerland

Public forecast

Using degrees Celsius for public forecast. Weather courtesy of forecast.io.

Closest aviation weather report (METAR) to Collombey-Muraz Heliport

Closest report is Sion Airport, 15.5 nm (28.7 km) E. Retrieved 2020/01/21 01:20 UTC (20 minutes ago):

LSGS 210120Z AUTO 11005KT CAVOK M00/M10 Q1041

Closest aviation forecast (TAF) to Collombey-Muraz Heliport

Forecast is more than 6 hours old.

Closest forecast is Payerne Air Base, 34.6 nm (64.0 km) N. Retrieved 2020/01/20 17:00 UTC (9 hours ago):

TAF LSMP 201625Z 2017/2123 06012KT CAVOK BECMG 2021/2024 VRB03KT 9999 BKN014 BECMG 2108/2110 SCT025